Time;durP1;ratioP1;P1;durP2;ratioP2;P2;SDS_P1;SDS_P2;PMS_P1;PMS_P2;Temp;Humidity;BMP_temperature;BMP_pressure;BME280_temperature;BME280_humidity;BME280_pressure;Samples;Min_cycle;Max_cycle;Signal;HPM_P1;HPM_P2
2023/08/29 00:00:51;;;;;;;2.70;2.70;;;17.00;68.40;;;;;;6213512;28;20254;-83
2023/08/29 00:03:58;;;;;;;3.53;3.33;;;17.00;68.30;;;;;;6204496;28;20754;-84
2023/08/29 00:07:01;;;;;;;3.40;3.20;;;17.00;67.90;;;;;;6191406;28;20243;-83
2023/08/29 00:10:05;;;;;;;3.23;3.17;;;17.00;67.90;;;;;;6194838;28;20367;-82
2023/08/29 00:13:08;;;;;;;3.07;2.97;;;17.00;67.90;;;;;;6198574;28;20263;-82
2023/08/29 00:16:16;;;;;;;3.63;3.43;;;17.00;67.90;;;;;;6203973;28;20666;-82
2023/08/29 00:19:21;;;;;;;3.10;2.80;;;17.00;68.10;;;;;;6198435;28;20952;-84
2023/08/29 00:22:24;;;;;;;3.00;2.90;;;17.00;68.20;;;;;;6212180;28;20234;-84
2023/08/29 00:25:27;;;;;;;3.67;3.47;;;17.00;68.30;;;;;;6204362;28;20239;-84
2023/08/29 00:28:30;;;;;;;3.20;3.10;;;17.00;68.30;;;;;;6204466;28;20242;-80
2023/08/29 00:31:34;;;;;;;3.63;3.40;;;16.90;68.40;;;;;;6206973;28;20844;-84
2023/08/29 00:34:38;;;;;;;3.23;3.13;;;16.90;68.40;;;;;;6202127;28;20264;-81
2023/08/29 00:37:42;;;;;;;2.93;2.93;;;17.00;68.30;;;;;;6196565;28;20274;-81
2023/08/29 00:40:45;;;;;;;3.20;3.10;;;17.00;68.10;;;;;;6205804;28;20236;-84
2023/08/29 00:43:48;;;;;;;3.30;3.20;;;17.00;68.10;;;;;;6205113;28;20236;-82
2023/08/29 00:46:54;;;;;;;4.50;4.30;;;17.00;68.40;;;;;;6207108;28;20250;-81
2023/08/29 00:50:03;;;;;;;4.50;4.20;;;17.00;68.80;;;;;;6193389;28;20327;-84
2023/08/29 00:53:08;;;;;;;5.40;5.00;;;17.00;69.00;;;;;;6199323;28;20235;-83
2023/08/29 00:56:17;;;;;;;5.50;5.20;;;17.00;69.40;;;;;;6209328;28;20887;-83
2023/08/29 00:59:21;;;;;;;5.50;4.97;;;17.00;69.40;;;;;;6188480;28;20821;-80
2023/08/29 01:02:24;;;;;;;5.50;4.73;;;17.00;69.50;;;;;;6208455;28;20651;-82
2023/08/29 01:05:30;;;;;;;5.23;5.03;;;17.00;69.50;;;;;;6196060;28;20236;-82
2023/08/29 01:08:34;;;;;;;4.83;4.63;;;16.90;69.50;;;;;;6195078;28;20247;-81
2023/08/29 01:11:45;;;;;;;5.17;4.77;;;16.90;69.70;;;;;;6218488;28;20240;-82
2023/08/29 01:14:55;;;;;;;7.03;5.00;;;16.80;70.00;;;;;;6197629;28;20266;-81
2023/08/29 01:18:02;;;;;;;5.17;5.00;;;16.80;70.20;;;;;;6213115;28;20741;-83
2023/08/29 01:21:25;;;;;;;4.30;4.10;;;16.80;70.00;;;;;;6204097;28;20232;-82
2023/08/29 01:24:38;;;;;;;4.73;4.33;;;16.80;70.00;;;;;;6194416;28;20295;-83
2023/08/29 01:27:43;;;;;;;4.70;4.27;;;16.80;69.60;;;;;;6196636;28;20235;-84
2023/08/29 01:30:47;;;;;;;6.30;3.70;;;16.80;69.70;;;;;;6191405;28;20263;-83
2023/08/29 01:33:51;;;;;;;4.50;4.20;;;16.80;69.70;;;;;;6207718;28;20270;-81
2023/08/29 01:36:54;;;;;;;4.83;4.53;;;16.70;69.60;;;;;;6201406;28;20697;-82
2023/08/29 01:39:57;;;;;;;3.90;3.70;;;16.70;69.70;;;;;;6200754;28;20239;-83
2023/08/29 01:43:04;;;;;;;3.73;3.53;;;16.70;69.80;;;;;;6206594;28;20250;-78
2023/08/29 01:46:11;;;;;;;3.97;3.67;;;16.70;69.90;;;;;;6211215;28;20243;-83
2023/08/29 01:49:14;;;;;;;4.33;4.10;;;16.60;70.00;;;;;;6208795;28;20240;-83
2023/08/29 01:52:17;;;;;;;3.97;3.77;;;16.60;70.10;;;;;;6197457;28;20673;-84
2023/08/29 01:55:21;;;;;;;4.33;4.13;;;16.60;70.10;;;;;;6208336;28;20634;-84
2023/08/29 01:58:26;;;;;;;4.27;3.90;;;16.50;70.30;;;;;;6208553;28;20767;-82
2023/08/29 02:01:30;;;;;;;6.30;3.67;;;16.50;70.40;;;;;;6205774;28;20239;-83
2023/08/29 02:04:33;;;;;;;4.03;3.90;;;16.50;70.50;;;;;;6206672;28;20658;-83
2023/08/29 02:07:37;;;;;;;4.13;3.77;;;16.50;70.50;;;;;;6201070;28;20614;-81
2023/08/29 02:10:43;;;;;;;6.60;3.37;;;16.50;70.50;;;;;;6198354;28;20302;-83
2023/08/29 02:13:47;;;;;;;3.67;3.57;;;16.50;70.40;;;;;;6206125;28;20298;-80
2023/08/29 02:16:50;;;;;;;3.73;3.43;;;16.50;70.40;;;;;;6210723;28;20243;-82
2023/08/29 02:19:53;;;;;;;3.73;3.63;;;16.50;70.40;;;;;;6199651;28;20886;-84
2023/08/29 02:22:57;;;;;;;3.70;3.60;;;16.50;70.40;;;;;;6192688;28;20313;-81
2023/08/29 02:26:04;;;;;;;3.70;3.50;;;16.40;70.30;;;;;;6207593;28;20289;-83
2023/08/29 02:29:09;;;;;;;3.67;3.57;;;16.40;70.30;;;;;;6203089;28;20235;-84
2023/08/29 02:32:12;;;;;;;3.80;3.70;;;16.40;70.30;;;;;;6210182;28;20374;-83
2023/08/29 02:35:15;;;;;;;3.60;3.50;;;16.40;70.40;;;;;;6206983;28;20240;-83
2023/08/29 02:38:18;;;;;;;3.37;3.27;;;16.40;70.50;;;;;;6204240;28;20246;-81
2023/08/29 02:41:21;;;;;;;3.70;3.50;;;16.40;70.50;;;;;;6207652;28;20301;-83
2023/08/29 02:44:26;;;;;;;3.20;3.10;;;16.40;70.30;;;;;;6215096;28;20318;-85
2023/08/29 02:47:29;;;;;;;3.50;3.40;;;16.40;70.30;;;;;;6205494;28;20255;-84
2023/08/29 02:50:33;;;;;;;3.53;3.27;;;16.30;70.40;;;;;;6196352;28;20247;-82
2023/08/29 02:53:36;;;;;;;3.37;3.27;;;16.20;70.40;;;;;;6201010;28;20239;-80
2023/08/29 02:56:39;;;;;;;4.23;3.43;;;16.20;70.50;;;;;;6196680;28;20288;-82
2023/08/29 02:59:45;;;;;;;3.33;3.03;;;16.30;70.30;;;;;;6215761;28;20639;-81
2023/08/29 03:02:48;;;;;;;3.20;3.17;;;16.20;70.50;;;;;;6203111;28;20259;-82
2023/08/29 03:05:55;;;;;;;3.17;3.10;;;16.20;70.40;;;;;;6207140;28;20259;-81
2023/08/29 03:08:58;;;;;;;3.43;3.33;;;16.20;70.20;;;;;;6206809;28;20664;-83
2023/08/29 03:12:03;;;;;;;3.40;3.20;;;16.20;70.40;;;;;;6213872;28;20322;-82
2023/08/29 03:15:09;;;;;;;3.00;2.90;;;16.20;70.70;;;;;;6208762;28;20234;-81
2023/08/29 03:18:12;;;;;;;3.53;3.33;;;16.10;70.70;;;;;;6220959;28;20247;-80
2023/08/29 03:21:15;;;;;;;3.10;2.80;;;16.10;70.70;;;;;;6243588;28;20499;-79
2023/08/29 03:24:18;;;;;;;3.50;3.20;;;16.10;70.60;;;;;;6221661;28;20234;-75
2023/08/29 03:27:21;;;;;;;3.40;3.20;;;16.20;70.40;;;;;;6235295;28;20242;-77
2023/08/29 03:30:27;;;;;;;3.20;2.83;;;16.10;70.40;;;;;;6242273;28;20246;-80
2023/08/29 03:33:30;;;;;;;3.20;3.10;;;16.10;70.50;;;;;;6224000;28;20235;-84
2023/08/29 03:36:34;;;;;;;3.17;3.07;;;16.00;70.80;;;;;;6242436;28;20248;-82
2023/08/29 03:39:37;;;;;;;3.63;3.33;;;16.00;71.00;;;;;;6222966;28;20246;-85
2023/08/29 03:42:40;;;;;;;3.10;3.00;;;16.00;71.20;;;;;;6219561;28;20247;-83
2023/08/29 03:45:45;;;;;;;3.30;3.20;;;15.90;71.50;;;;;;6216242;28;20244;-81
2023/08/29 03:48:48;;;;;;;3.23;3.13;;;15.80;71.60;;;;;;6218585;28;20254;-83
2023/08/29 03:51:51;;;;;;;3.30;3.20;;;15.80;71.70;;;;;;6228152;28;20235;-83
2023/08/29 03:54:54;;;;;;;3.10;2.87;;;15.80;71.70;;;;;;6227264;28;20746;-81
2023/08/29 03:57:58;;;;;;;3.13;3.00;;;15.70;71.80;;;;;;6231436;28;20266;-81
2023/08/29 04:01:03;;;;;;;2.97;2.97;;;15.60;71.90;;;;;;6235365;28;20243;-83
2023/08/29 04:04:07;;;;;;;3.00;2.80;;;15.60;71.80;;;;;;6223352;28;20250;-83
2023/08/29 04:07:11;;;;;;;3.13;3.03;;;15.60;71.90;;;;;;6227462;28;20294;-78
2023/08/29 04:10:14;;;;;;;3.30;3.20;;;15.60;71.90;;;;;;6234679;28;20232;-82
2023/08/29 04:13:17;;;;;;;3.47;3.17;;;15.60;72.10;;;;;;6220100;28;20228;-81
2023/08/29 04:16:21;;;;;;;3.30;3.20;;;15.60;71.90;;;;;;6232950;28;20297;-81
2023/08/29 04:19:25;;;;;;;3.17;2.97;;;15.60;72.00;;;;;;6227366;28;20314;-83
2023/08/29 04:22:28;;;;;;;2.90;2.77;;;15.60;71.60;;;;;;6220885;28;20266;-80
2023/08/29 04:25:31;;;;;;;3.40;2.83;;;15.60;71.80;;;;;;6232617;28;20309;-82
2023/08/29 04:28:35;;;;;;;3.00;2.90;;;15.60;71.50;;;;;;6223539;28;20255;-83
2023/08/29 04:31:40;;;;;;;2.70;2.70;;;15.60;72.00;;;;;;6218317;28;20281;-85
2023/08/29 04:34:43;;;;;;;5.13;3.07;;;15.60;72.00;;;;;;6215015;28;20240;-82
2023/08/29 04:37:48;;;;;;;3.33;3.23;;;15.60;72.00;;;;;;6206361;28;20231;-85
2023/08/29 04:40:54;;;;;;;3.30;3.20;;;15.50;72.20;;;;;;6211389;28;20254;-85
2023/08/29 04:43:57;;;;;;;2.97;2.87;;;15.50;72.30;;;;;;6219301;28;20883;-87
2023/08/29 04:47:02;;;;;;;3.13;3.03;;;15.50;72.20;;;;;;6212162;28;20239;-85
2023/08/29 04:50:06;;;;;;;3.37;3.17;;;15.50;72.10;;;;;;6204186;28;20765;-84
2023/08/29 04:53:09;;;;;;;3.20;3.00;;;15.50;72.10;;;;;;6199829;28;20322;-85
2023/08/29 04:56:13;;;;;;;3.10;3.00;;;15.50;72.30;;;;;;6196743;28;20324;-85
2023/08/29 04:59:16;;;;;;;3.40;3.30;;;15.50;72.30;;;;;;6207519;28;20474;-83
2023/08/29 05:02:20;;;;;;;3.30;3.20;;;15.60;72.30;;;;;;6212396;28;20228;-85
2023/08/29 05:05:24;;;;;;;4.60;3.57;;;15.60;72.40;;;;;;6201392;28;20238;-84
2023/08/29 05:08:27;;;;;;;3.77;3.60;;;15.60;72.20;;;;;;6211764;28;20258;-82
2023/08/29 05:11:30;;;;;;;4.20;3.80;;;15.60;72.30;;;;;;6202936;28;20318;-81
2023/08/29 05:14:33;;;;;;;3.43;3.33;;;15.50;72.60;;;;;;6200624;28;20884;-83
2023/08/29 05:17:38;;;;;;;4.03;3.73;;;15.50;72.70;;;;;;6200537;28;20804;-80
2023/08/29 05:20:41;;;;;;;4.80;3.60;;;15.50;73.00;;;;;;6210955;28;20239;-79
2023/08/29 05:23:44;;;;;;;5.33;3.97;;;15.50;73.20;;;;;;6214880;28;20242;-78
2023/08/29 05:26:48;;;;;;;3.60;3.40;;;15.60;72.80;;;;;;6210288;28;20283;-80
2023/08/29 05:29:51;;;;;;;3.40;3.30;;;15.60;72.70;;;;;;6214593;28;20256;-80
2023/08/29 05:32:56;;;;;;;4.77;3.93;;;15.60;72.70;;;;;;6214471;28;20285;-82
2023/08/29 05:35:59;;;;;;;4.20;3.90;;;15.80;72.50;;;;;;6211195;28;20779;-83
2023/08/29 05:39:03;;;;;;;4.13;3.93;;;15.80;72.50;;;;;;6216055;28;20239;-81
2023/08/29 05:42:06;;;;;;;4.83;4.53;;;15.90;72.50;;;;;;6215901;28;20227;-83
2023/08/29 05:45:10;;;;;;;3.80;3.53;;;15.90;72.70;;;;;;6207317;28;20235;-81
2023/08/29 05:48:15;;;;;;;4.17;4.07;;;15.80;73.00;;;;;;6213793;28;20239;-84
2023/08/29 05:51:18;;;;;;;4.80;4.47;;;16.00;73.00;;;;;;6215880;28;20232;-81
2023/08/29 05:54:21;;;;;;;4.17;4.03;;;16.00;73.00;;;;;;6205169;28;20616;-84
2023/08/29 05:57:25;;;;;;;4.07;3.80;;;16.00;73.40;;;;;;6207730;28;20325;-83
2023/08/29 06:00:29;;;;;;;4.13;3.90;;;16.00;73.80;;;;;;6206127;28;20737;-84
2023/08/29 06:03:34;;;;;;;5.20;4.70;;;16.00;73.90;;;;;;6214356;28;20282;-82
2023/08/29 06:06:39;;;;;;;3.90;3.80;;;16.00;74.20;;;;;;6213923;28;20236;-81
2023/08/29 06:09:43;;;;;;;4.87;4.67;;;15.90;74.30;;;;;;6206530;28;20240;-82
2023/08/29 06:12:46;;;;;;;4.50;4.13;;;15.90;74.40;;;;;;6211432;28;20552;-80
2023/08/29 06:15:49;;;;;;;4.07;3.97;;;15.90;74.60;;;;;;6213682;28;21045;-81
2023/08/29 06:18:55;;;;;;;4.67;4.47;;;15.90;74.90;;;;;;6207848;28;20247;-82
2023/08/29 06:21:58;;;;;;;4.40;4.17;;;16.00;75.00;;;;;;6204227;28;20235;-81
2023/08/29 06:25:01;;;;;;;6.47;6.07;;;16.00;75.00;;;;;;6200454;28;20239;-83
2023/08/29 06:28:05;;;;;;;4.57;4.27;;;16.10;74.50;;;;;;6203076;28;20243;-81
2023/08/29 06:31:09;;;;;;;4.37;4.07;;;16.20;74.30;;;;;;6196488;28;20235;-81
2023/08/29 06:34:15;;;;;;;5.50;5.30;;;16.40;74.50;;;;;;6215217;28;20712;-81
2023/08/29 06:37:18;;;;;;;5.33;4.93;;;16.40;74.20;;;;;;6208459;28;20246;-82
2023/08/29 06:40:21;;;;;;;4.87;4.57;;;16.50;74.20;;;;;;6209073;28;20341;-83
2023/08/29 06:43:24;;;;;;;6.00;4.60;;;16.50;74.20;;;;;;6218658;28;20234;-83
2023/08/29 06:46:28;;;;;;;5.67;5.13;;;16.60;74.20;;;;;;6219421;28;20254;-84
2023/08/29 06:49:32;;;;;;;5.17;4.87;;;16.50;73.60;;;;;;6211133;28;20231;-82
2023/08/29 06:52:35;;;;;;;4.87;4.57;;;16.60;73.90;;;;;;6209853;28;20236;-84
2023/08/29 06:55:38;;;;;;;5.33;5.03;;;16.60;73.10;;;;;;6201145;28;20232;-82
2023/08/29 06:58:42;;;;;;;5.43;5.13;;;16.50;73.50;;;;;;6208821;28;20760;-82
2023/08/29 07:01:46;;;;;;;5.07;4.87;;;16.60;73.20;;;;;;6207108;28;20245;-83
2023/08/29 07:04:51;;;;;;;5.23;4.97;;;16.60;73.10;;;;;;6214240;28;20274;-83
2023/08/29 07:07:55;;;;;;;5.73;5.43;;;16.70;72.70;;;;;;6213494;28;20335;-82
2023/08/29 07:10:58;;;;;;;4.87;4.60;;;16.60;73.00;;;;;;6203870;28;20664;-82
2023/08/29 07:14:02;;;;;;;5.23;5.03;;;16.60;73.10;;;;;;6211606;28;20302;-82
2023/08/29 07:17:06;;;;;;;4.83;4.40;;;16.50;73.30;;;;;;6217324;28;20670;-84
2023/08/29 07:20:15;;;;;;;4.83;4.53;;;16.50;73.70;;;;;;6202587;28;20242;-84
2023/08/29 07:23:18;;;;;;;6.43;6.03;;;16.50;73.70;;;;;;6207410;28;20300;-82
2023/08/29 07:26:22;;;;;;;6.17;5.53;;;16.50;73.40;;;;;;6203065;28;20224;-81
2023/08/29 07:29:25;;;;;;;5.70;5.20;;;16.40;73.90;;;;;;6212636;28;20823;-83
2023/08/29 07:32:28;;;;;;;5.93;5.53;;;16.40;74.20;;;;;;6208199;28;20639;-80
2023/08/29 07:35:33;;;;;;;4.97;4.67;;;16.40;74.50;;;;;;6206906;28;20807;-84
2023/08/29 07:38:36;;;;;;;6.43;5.57;;;16.50;74.60;;;;;;6207573;28;20981;-80
2023/08/29 07:41:39;;;;;;;4.90;4.60;;;16.50;74.70;;;;;;6212639;28;20235;-84
2023/08/29 07:44:42;;;;;;;6.37;5.77;;;16.60;74.40;;;;;;6204493;28;20228;-82
2023/08/29 07:47:46;;;;;;;6.53;6.03;;;16.60;74.10;;;;;;6207690;28;20254;-81
2023/08/29 07:50:50;;;;;;;6.73;6.33;;;16.60;74.00;;;;;;6198297;28;20488;-80
2023/08/29 07:53:53;;;;;;;6.77;5.90;;;16.60;74.20;;;;;;6197751;28;20722;-79
2023/08/29 07:56:56;;;;;;;6.13;5.60;;;16.60;74.80;;;;;;6200145;28;20326;-80
2023/08/29 08:00:00;;;;;;;5.90;5.50;;;16.70;75.00;;;;;;6200546;28;20677;-79
2023/08/29 08:03:04;;;;;;;7.57;6.03;;;16.70;75.50;;;;;;6209943;28;20236;-82
2023/08/29 08:06:08;;;;;;;6.63;6.30;;;16.70;74.90;;;;;;6206185;28;20270;-82
2023/08/29 08:09:12;;;;;;;9.00;6.20;;;16.70;75.20;;;;;;6221465;28;20377;-79
2023/08/29 08:12:16;;;;;;;6.53;6.10;;;16.60;75.70;;;;;;6224974;28;20235;-81
2023/08/29 08:15:20;;;;;;;7.13;6.43;;;16.70;75.60;;;;;;6210748;28;20235;-79
2023/08/29 08:18:24;;;;;;;7.77;6.43;;;16.70;75.40;;;;;;6206684;28;20319;-79
2023/08/29 08:21:28;;;;;;;7.43;6.83;;;16.70;75.90;;;;;;6199379;28;20386;-83
2023/08/29 08:24:31;;;;;;;6.57;5.97;;;16.80;76.20;;;;;;6209015;28;20264;-81
2023/08/29 08:27:36;;;;;;;7.77;7.13;;;16.90;75.50;;;;;;6206081;28;20291;-81
2023/08/29 08:30:39;;;;;;;6.70;6.30;;;16.90;74.70;;;;;;6205348;28;20263;-82
2023/08/29 08:33:43;;;;;;;11.10;6.60;;;16.80;75.50;;;;;;6210897;28;20239;-85
2023/08/29 08:36:47;;;;;;;7.63;6.90;;;16.80;75.70;;;;;;6205543;28;20236;-82
2023/08/29 08:39:50;;;;;;;6.90;6.47;;;16.80;75.80;;;;;;6203051;28;20243;-82
2023/08/29 08:42:54;;;;;;;6.77;6.37;;;16.80;76.00;;;;;;6205502;28;20289;-82
2023/08/29 08:45:58;;;;;;;6.50;6.10;;;16.90;75.20;;;;;;6209236;28;20235;-82
2023/08/29 08:49:02;;;;;;;6.37;5.80;;;16.90;75.00;;;;;;6210500;28;20250;-78
2023/08/29 08:52:08;;;;;;;6.90;6.60;;;17.00;75.40;;;;;;6204918;28;20278;-82
2023/08/29 08:55:11;;;;;;;5.27;5.00;;;17.00;75.50;;;;;;6211093;28;20851;-82
2023/08/29 08:58:14;;;;;;;5.10;4.90;;;17.10;75.50;;;;;;6207306;28;20313;-79
2023/08/29 09:01:18;;;;;;;5.77;5.47;;;17.20;75.10;;;;;;6206474;28;20330;-82
2023/08/29 09:04:22;;;;;;;5.80;5.50;;;17.20;75.20;;;;;;6197104;28;20247;-81
2023/08/29 09:07:27;;;;;;;5.80;5.50;;;17.40;74.70;;;;;;6200923;28;20273;-83
2023/08/29 09:10:33;;;;;;;5.77;5.43;;;17.50;74.10;;;;;;6218272;28;20242;-82
2023/08/29 09:13:36;;;;;;;5.20;4.90;;;17.60;74.00;;;;;;6208218;28;20340;-81
2023/08/29 09:16:39;;;;;;;4.67;4.57;;;17.90;73.20;;;;;;6211362;28;20458;-79
2023/08/29 09:19:42;;;;;;;4.53;4.33;;;18.00;72.30;;;;;;6208641;28;20637;-82
2023/08/29 09:22:48;;;;;;;4.10;3.80;;;18.20;72.20;;;;;;6199885;28;20284;-82
2023/08/29 09:25:55;;;;;;;4.30;4.00;;;18.30;71.60;;;;;;6174102;28;20711;-80
2023/08/29 09:28:58;;;;;;;4.17;3.77;;;18.30;71.30;;;;;;6206037;28;20251;-81
2023/08/29 09:32:12;;;;;;;3.30;3.20;;;18.50;69.00;;;;;;6207647;28;20326;-81
2023/08/29 09:35:19;;;;;;;3.50;3.20;;;18.70;68.30;;;;;;6202155;28;20235;-81
2023/08/29 09:38:28;;;;;;;2.70;2.50;;;18.80;68.40;;;;;;6209033;28;20250;-80
2023/08/29 09:41:31;;;;;;;3.27;3.07;;;18.80;67.50;;;;;;6204543;28;20235;-81
2023/08/29 09:44:36;;;;;;;3.47;3.20;;;18.90;69.30;;;;;;6206623;28;20333;-81
2023/08/29 09:47:42;;;;;;;3.33;3.23;;;19.00;69.10;;;;;;6200967;28;20247;-84
2023/08/29 09:50:46;;;;;;;3.40;3.30;;;19.00;68.90;;;;;;6204403;28;20240;-82
2023/08/29 09:53:56;;;;;;;4.00;3.80;;;19.00;67.90;;;;;;6209313;28;20888;-83
2023/08/29 09:57:05;;;;;;;3.50;3.40;;;18.90;68.60;;;;;;6210065;28;20235;-84
2023/08/29 10:00:12;;;;;;;3.93;3.83;;;18.90;68.10;;;;;;6206581;28;20724;-79
2023/08/29 10:03:17;;;;;;;3.40;3.30;;;18.70;68.30;;;;;;6202391;28;20231;-82
2023/08/29 10:06:26;;;;;;;3.43;3.23;;;18.70;69.20;;;;;;6210267;28;20235;-85
2023/08/29 10:09:32;;;;;;;3.40;3.30;;;18.80;68.70;;;;;;6213660;28;20323;-79
2023/08/29 10:12:36;;;;;;;3.53;3.40;;;18.90;66.90;;;;;;6212338;28;20687;-82
2023/08/29 10:15:41;;;;;;;3.00;3.00;;;18.90;66.40;;;;;;6212216;28;20254;-82
2023/08/29 10:18:47;;;;;;;3.30;3.10;;;18.80;66.90;;;;;;6206551;28;20242;-83
2023/08/29 10:21:53;;;;;;;3.23;3.13;;;18.60;67.20;;;;;;6212855;28;20238;-81
2023/08/29 10:24:59;;;;;;;3.17;3.07;;;18.60;67.10;;;;;;6213715;28;20238;-82
2023/08/29 10:28:03;;;;;;;3.43;3.27;;;18.40;67.90;;;;;;6194370;28;20242;-80
2023/08/29 10:31:09;;;;;;;3.83;3.73;;;18.30;67.70;;;;;;6216933;28;20294;-81
2023/08/29 10:34:13;;;;;;;3.60;3.40;;;18.30;68.30;;;;;;6218122;28;20235;-84
2023/08/29 10:37:18;;;;;;;3.80;3.70;;;18.30;67.90;;;;;;6213132;28;20690;-83
2023/08/29 10:40:22;;;;;;;3.50;3.40;;;18.10;68.80;;;;;;6200724;28;20796;-82
2023/08/29 10:43:26;;;;;;;3.40;3.20;;;18.10;69.20;;;;;;6212886;28;20610;-83
2023/08/29 10:46:29;;;;;;;4.83;4.63;;;18.20;69.00;;;;;;6214536;28;20719;-82
2023/08/29 10:49:42;;;;;;;4.50;4.30;;;18.20;69.20;;;;;;6213763;28;20715;-81
2023/08/29 10:52:46;;;;;;;4.53;4.40;;;18.30;69.50;;;;;;6208421;28;20240;-83
2023/08/29 10:56:03;;;;;;;4.77;4.63;;;18.40;68.80;;;;;;6218750;28;20243;-85
2023/08/29 10:59:32;;;;;;;4.50;4.30;;;18.40;67.80;;;;;;6206995;28;20247;-83
2023/08/29 11:02:41;;;;;;;4.60;4.20;;;18.30;68.40;;;;;;6240371;28;20300;-81
2023/08/29 11:05:57;;;;;;;5.33;5.13;;;18.20;68.60;;;;;;6208048;28;20235;-84
2023/08/29 11:09:24;;;;;;;5.40;5.10;;;18.20;68.40;;;;;;6207480;28;20258;-84
2023/08/29 11:12:29;;;;;;;5.50;5.10;;;18.30;68.40;;;;;;6212765;28;20313;-83
2023/08/29 11:16:06;;;;;;;5.50;5.20;;;18.20;68.40;;;;;;6206967;28;20653;-83
2023/08/29 11:19:13;;;;;;;5.77;5.37;;;18.40;68.00;;;;;;6205290;28;20370;-82
2023/08/29 11:22:16;;;;;;;6.03;5.63;;;18.40;67.30;;;;;;6201201;28;20282;-82
2023/08/29 11:25:21;;;;;;;5.73;5.53;;;18.50;66.80;;;;;;6207137;28;20322;-80
2023/08/29 11:28:25;;;;;;;5.90;5.60;;;18.50;67.50;;;;;;6199458;28;20270;-82
2023/08/29 11:31:30;;;;;;;6.27;6.07;;;18.60;67.90;;;;;;6207405;28;20242;-84
2023/08/29 11:34:36;;;;;;;5.97;5.47;;;18.70;68.00;;;;;;6208078;28;20334;-85
2023/08/29 11:37:40;;;;;;;5.30;5.10;;;18.90;66.90;;;;;;6201151;28;20244;-81
2023/08/29 11:40:44;;;;;;;5.63;5.33;;;19.10;66.70;;;;;;6208011;28;20284;-80
2023/08/29 11:43:59;;;;;;;4.93;4.83;;;19.10;65.90;;;;;;6207139;28;20240;-81
2023/08/29 11:47:23;;;;;;;5.50;5.33;;;19.30;65.30;;;;;;6217038;28;20238;-81
2023/08/29 11:50:27;;;;;;;10.20;5.70;;;19.50;64.60;;;;;;6209361;28;20246;-79
2023/08/29 11:53:33;;;;;;;5.10;4.90;;;19.40;65.50;;;;;;6202351;28;20404;-82
2023/08/29 11:56:36;;;;;;;6.30;6.00;;;19.40;65.30;;;;;;6208191;28;20231;-83
2023/08/29 11:59:45;;;;;;;6.43;6.03;;;19.40;64.70;;;;;;6209186;28;20266;-82
2023/08/29 12:02:48;;;;;;;5.70;5.50;;;19.40;65.20;;;;;;6189650;28;20906;-81
2023/08/29 12:05:53;;;;;;;5.70;5.40;;;19.50;65.00;;;;;;6207081;28;20290;-81
2023/08/29 12:08:56;;;;;;;6.60;6.23;;;19.50;65.00;;;;;;6205038;28;20321;-82
2023/08/29 12:12:03;;;;;;;5.60;5.40;;;19.50;65.20;;;;;;6196217;28;20235;-83
2023/08/29 12:15:11;;;;;;;7.07;6.57;;;19.50;65.30;;;;;;6207991;28;20294;-83
2023/08/29 12:18:22;;;;;;;7.67;7.07;;;19.40;65.30;;;;;;6202105;28;20322;-80
2023/08/29 12:21:25;;;;;;;7.27;6.73;;;19.10;66.00;;;;;;6195726;28;20228;-84
2023/08/29 12:24:28;;;;;;;6.60;6.40;;;18.90;66.40;;;;;;6212013;28;20719;-82
2023/08/29 12:27:31;;;;;;;7.60;6.87;;;18.80;66.50;;;;;;6211930;28;20350;-83
2023/08/29 12:30:36;;;;;;;6.03;5.83;;;18.80;66.40;;;;;;6205723;28;20247;-84
2023/08/29 12:33:39;;;;;;;7.63;7.10;;;18.90;66.60;;;;;;6209756;28;20826;-83
2023/08/29 12:36:42;;;;;;;5.77;5.37;;;18.90;66.90;;;;;;6213318;28;20243;-81
2023/08/29 12:39:45;;;;;;;6.60;6.30;;;18.80;66.50;;;;;;6213146;28;20327;-83
2023/08/29 12:42:51;;;;;;;6.93;6.30;;;18.80;66.80;;;;;;6199591;28;20232;-81
2023/08/29 12:45:55;;;;;;;6.10;5.80;;;18.90;66.20;;;;;;6209359;28;20776;-81
2023/08/29 12:49:04;;;;;;;6.17;5.87;;;18.70;65.40;;;;;;6199792;28;20715;-81
2023/08/29 12:52:08;;;;;;;5.63;5.33;;;18.50;65.20;;;;;;6205788;28;20242;-83
2023/08/29 12:55:12;;;;;;;10.93;6.40;;;18.50;66.10;;;;;;6211872;28;20231;-81
2023/08/29 12:58:15;;;;;;;7.13;6.67;;;18.50;66.50;;;;;;6212726;28;20266;-81
2023/08/29 13:01:23;;;;;;;6.83;6.33;;;18.60;65.50;;;;;;6216881;28;20243;-81
2023/08/29 13:04:28;;;;;;;6.50;5.87;;;18.70;66.00;;;;;;6205952;28;20366;-80
2023/08/29 13:07:33;;;;;;;7.37;6.63;;;18.70;65.20;;;;;;6208476;28;20306;-82
2023/08/29 13:10:36;;;;;;;9.00;6.77;;;18.80;65.00;;;;;;6202408;28;20313;-83
2023/08/29 13:13:40;;;;;;;7.37;6.70;;;18.80;65.30;;;;;;6206037;28;20234;-82
2023/08/29 13:16:44;;;;;;;7.10;6.70;;;18.80;64.70;;;;;;6211112;28;20584;-82
2023/08/29 13:19:47;;;;;;;7.07;6.77;;;18.70;64.70;;;;;;6209870;28;20665;-84
2023/08/29 13:22:51;;;;;;;7.73;7.20;;;18.70;65.10;;;;;;6208300;28;20722;-83
2023/08/29 13:25:54;;;;;;;8.13;7.53;;;18.60;65.70;;;;;;6206387;28;20227;-78
2023/08/29 13:28:59;;;;;;;7.03;6.73;;;18.50;65.80;;;;;;6208540;28;20863;-82
2023/08/29 13:32:11;;;;;;;8.10;7.70;;;18.40;65.90;;;;;;6206378;28;20449;-81
2023/08/29 13:35:14;;;;;;;7.67;7.37;;;18.30;66.70;;;;;;6204355;28;20349;-81
2023/08/29 13:38:17;;;;;;;8.10;7.60;;;18.20;66.60;;;;;;6219727;28;20239;-81
2023/08/29 13:41:20;;;;;;;7.50;7.07;;;18.20;66.90;;;;;;6202965;28;20250;-82
2023/08/29 13:44:25;;;;;;;8.43;8.00;;;18.20;66.70;;;;;;6212695;28;20837;-81
2023/08/29 13:47:29;;;;;;;7.90;7.50;;;18.30;67.30;;;;;;6200143;28;20263;-83
2023/08/29 13:50:32;;;;;;;8.00;7.43;;;18.30;67.60;;;;;;6207052;28;20262;-79
2023/08/29 13:53:35;;;;;;;7.77;7.37;;;18.20;67.60;;;;;;6206868;28;20750;-80
2023/08/29 13:56:38;;;;;;;6.10;5.80;;;18.20;67.00;;;;;;6208987;28;20271;-81
2023/08/29 13:59:42;;;;;;;5.40;5.30;;;18.20;66.90;;;;;;6212922;28;20286;-79
2023/08/29 14:02:46;;;;;;;5.70;5.33;;;18.10;67.70;;;;;;6209059;28;20247;-81
2023/08/29 14:05:50;;;;;;;4.50;4.40;;;18.00;68.30;;;;;;6204552;28;20227;-80
2023/08/29 14:08:53;;;;;;;4.03;3.93;;;17.80;68.70;;;;;;6210163;28;20255;-82
2023/08/29 14:11:56;;;;;;;4.63;4.40;;;17.60;69.00;;;;;;6200897;28;20258;-77
2023/08/29 14:14:59;;;;;;;5.50;5.10;;;17.30;69.80;;;;;;6195985;28;20724;-83
2023/08/29 14:18:04;;;;;;;5.07;4.77;;;17.20;70.40;;;;;;6208485;28;20366;-82
2023/08/29 14:21:10;;;;;;;4.40;4.20;;;17.00;71.30;;;;;;6217688;28;20239;-81
2023/08/29 14:24:13;;;;;;;5.50;5.03;;;17.00;71.50;;;;;;6210311;28;20618;-82
2023/08/29 14:27:16;;;;;;;4.67;4.47;;;17.00;72.20;;;;;;6210221;28;20250;-81
2023/08/29 14:30:20;;;;;;;5.40;5.10;;;16.80;72.30;;;;;;6213365;28;20338;-78
2023/08/29 14:33:24;;;;;;;5.30;5.00;;;16.70;72.90;;;;;;6214350;28;20283;-81
2023/08/29 14:36:30;;;;;;;5.63;5.40;;;16.70;73.00;;;;;;6210467;28;20701;-82
2023/08/29 14:39:33;;;;;;;7.73;7.20;;;16.70;73.20;;;;;;6215373;28;20247;-81
2023/08/29 14:42:36;;;;;;;7.67;7.23;;;16.70;73.60;;;;;;6207725;28;20238;-80
2023/08/29 14:45:41;;;;;;;8.50;8.10;;;16.70;74.20;;;;;;6198461;28;20849;-81
2023/08/29 14:48:46;;;;;;;9.17;8.47;;;16.60;74.90;;;;;;6195458;28;20794;-82
2023/08/29 14:51:49;;;;;;;8.77;8.27;;;16.60;75.40;;;;;;6203940;28;20846;-82
2023/08/29 14:54:53;;;;;;;8.27;7.77;;;16.60;75.40;;;;;;6201511;28;20915;-84
2023/08/29 14:57:58;;;;;;;9.67;9.13;;;16.50;75.50;;;;;;6203315;28;20319;-84
2023/08/29 15:01:02;;;;;;;8.97;8.30;;;16.50;76.00;;;;;;6209752;28;20243;-83
2023/08/29 15:04:06;;;;;;;9.40;8.80;;;16.50;76.20;;;;;;6205641;28;20232;-83
2023/08/29 15:07:14;;;;;;;8.43;8.00;;;16.40;76.80;;;;;;6202430;28;20775;-80
2023/08/29 15:10:17;;;;;;;9.43;8.87;;;16.40;77.20;;;;;;6207606;28;20240;-79
2023/08/29 15:13:21;;;;;;;9.37;8.77;;;16.40;77.30;;;;;;6202318;28;20240;-81
2023/08/29 15:16:24;;;;;;;9.20;8.70;;;16.40;77.40;;;;;;6194424;28;20374;-79
2023/08/29 15:19:29;;;;;;;8.80;8.30;;;16.40;77.70;;;;;;6195334;28;20330;-78
2023/08/29 15:22:32;;;;;;;8.10;7.73;;;16.40;77.50;;;;;;6194187;28;20271;-77
2023/08/29 15:25:35;;;;;;;7.63;7.17;;;16.50;77.30;;;;;;6187029;28;20236;-74
2023/08/29 15:28:38;;;;;;;8.20;7.90;;;16.50;77.20;;;;;;6192241;28;21059;-77
2023/08/29 15:31:41;;;;;;;8.43;8.03;;;16.40;77.40;;;;;;6190065;28;20250;-77
2023/08/29 15:34:46;;;;;;;8.63;8.17;;;16.40;77.90;;;;;;6185597;28;20240;-75
2023/08/29 15:37:49;;;;;;;9.00;8.50;;;16.40;78.10;;;;;;6192727;28;20247;-76
2023/08/29 15:40:54;;;;;;;7.80;7.33;;;16.40;78.50;;;;;;6193475;28;20235;-79
2023/08/29 15:43:57;;;;;;;6.37;6.07;;;16.30;78.20;;;;;;6187386;28;20271;-82
2023/08/29 15:47:01;;;;;;;6.00;5.60;;;16.20;78.50;;;;;;6187156;28;20296;-76
2023/08/29 15:50:07;;;;;;;5.97;5.73;;;16.10;78.50;;;;;;6188987;28;20247;-77
2023/08/29 15:53:10;;;;;;;5.70;5.50;;;16.10;78.90;;;;;;6186749;28;20247;-74
2023/08/29 15:56:13;;;;;;;4.37;4.27;;;16.00;79.30;;;;;;6188888;28;21010;-76
2023/08/29 15:59:16;;;;;;;4.37;4.20;;;16.00;78.90;;;;;;6181550;28;21025;-76